createdAt,value
2022-07-29T00:01:06.472Z,66.43
2022-07-29T00:03:34.006Z,66.61
2022-07-29T00:06:01.493Z,66.64
2022-07-29T00:08:29.196Z,66.10
2022-07-29T00:10:56.680Z,67.11
2022-07-29T00:13:32.257Z,66.74
2022-07-29T00:16:04.526Z,66.84
2022-07-29T00:18:32.654Z,67.70
2022-07-29T00:21:00.163Z,67.22
2022-07-29T00:23:27.765Z,67.13
2022-07-29T00:25:55.221Z,66.96
2022-07-29T00:28:22.650Z,67.12
2022-07-29T00:30:50.078Z,67.77
2022-07-29T00:33:18.900Z,67.52
2022-07-29T00:35:45.397Z,68.39
2022-07-29T00:38:13.506Z,68.33
2022-07-29T00:40:43.251Z,67.61
2022-07-29T00:43:11.836Z,68.46
2022-07-29T00:45:39.348Z,67.80
2022-07-29T00:48:09.486Z,68.32
2022-07-29T00:50:39.312Z,67.97
2022-07-29T00:53:07.980Z,67.41
2022-07-29T00:55:35.761Z,68.25
2022-07-29T00:58:03.198Z,68.55
2022-07-29T01:00:31.699Z,68.24
2022-07-29T01:02:59.308Z,68.86
2022-07-29T01:05:50.271Z,68.38
2022-07-29T01:08:17.511Z,68.26
2022-07-29T01:10:46.005Z,68.47
2022-07-29T01:13:13.968Z,68.00
2022-07-29T01:15:49.321Z,67.58
2022-07-29T01:18:18.963Z,67.88
2022-07-29T01:21:00.078Z,68.03
2022-07-29T01:23:46.764Z,68.91
2022-07-29T01:26:34.956Z,68.60
2022-07-29T01:29:07.811Z,68.72
2022-07-29T01:31:44.303Z,67.94
2022-07-29T01:34:29.118Z,68.31
2022-07-29T01:36:59.482Z,67.89
2022-07-29T01:39:28.307Z,67.73
2022-07-29T01:41:59.330Z,67.57
2022-07-29T01:44:32.601Z,68.30
2022-07-29T01:47:00.876Z,68.46
2022-07-29T01:49:30.181Z,68.48
2022-07-29T01:51:59.416Z,68.14
2022-07-29T01:54:28.542Z,68.61
2022-07-29T01:56:58.388Z,69.25
2022-07-29T01:59:26.829Z,68.88
2022-07-29T02:01:59.336Z,69.62
2022-07-29T02:04:29.847Z,69.83
2022-07-29T02:07:00.669Z,69.64
2022-07-29T02:09:28.667Z,69.70
2022-07-29T02:11:57.139Z,69.52
2022-07-29T02:14:25.107Z,69.18
2022-07-29T02:16:55.008Z,69.98
2022-07-29T02:19:25.955Z,70.04
2022-07-29T02:21:54.964Z,69.54
2022-07-29T02:24:23.021Z,69.60
2022-07-29T02:26:51.474Z,69.18
2022-07-29T02:29:21.050Z,69.74
2022-07-29T02:31:49.788Z,69.93
2022-07-29T02:34:18.141Z,69.19
2022-07-29T02:36:50.498Z,69.50
2022-07-29T02:39:19.230Z,68.75
2022-07-29T02:41:48.773Z,69.38
2022-07-29T02:44:17.971Z,68.47
2022-07-29T02:46:50.058Z,69.68
2022-07-29T02:49:18.897Z,68.92
2022-07-29T02:51:48.192Z,68.66
2022-07-29T02:54:24.289Z,68.63
2022-07-29T02:56:54.628Z,68.79
2022-07-29T02:59:23.975Z,69.13
2022-07-29T03:01:51.806Z,68.46
2022-07-29T03:04:21.387Z,68.61
2022-07-29T03:06:50.523Z,68.58
2022-07-29T03:09:18.120Z,69.21
2022-07-29T03:11:49.791Z,69.09
2022-07-29T03:14:19.046Z,68.95
2022-07-29T03:16:47.055Z,69.60
2022-07-29T03:19:14.805Z,69.69
2022-07-29T03:21:42.314Z,69.21
2022-07-29T03:24:10.735Z,69.27
2022-07-29T03:26:39.759Z,69.02
2022-07-29T03:29:08.547Z,68.79
2022-07-29T03:31:41.689Z,69.15
2022-07-29T03:34:11.222Z,69.21
2022-07-29T03:36:38.720Z,68.84
2022-07-29T03:39:06.484Z,68.87
2022-07-29T03:41:35.700Z,69.17
2022-07-29T03:44:04.087Z,68.79
2022-07-29T03:46:34.268Z,68.99
2022-07-29T03:49:03.263Z,69.13
2022-07-29T03:51:33.761Z,68.66
2022-07-29T03:54:07.686Z,68.63
2022-07-29T03:56:39.898Z,68.46
2022-07-29T03:59:07.664Z,69.06
2022-07-29T04:01:37.231Z,68.39
2022-07-29T04:04:05.664Z,69.04
2022-07-29T04:06:40.029Z,68.95
2022-07-29T04:09:09.832Z,69.39
2022-07-29T04:12:01.633Z,69.33
2022-07-29T04:14:25.497Z,69.22
2022-07-29T04:16:54.556Z,68.97
2022-07-29T04:19:22.062Z,69.37
2022-07-29T04:21:49.560Z,69.23
2022-07-29T04:24:17.442Z,68.92
2022-07-29T04:26:45.463Z,68.55
2022-07-29T04:29:12.958Z,69.17
2022-07-29T04:31:40.405Z,68.38
2022-07-29T04:34:09.944Z,68.52
2022-07-29T04:36:37.445Z,68.89
2022-07-29T04:39:05.392Z,68.51
2022-07-29T04:41:33.702Z,68.37
2022-07-29T04:44:12.310Z,68.75
2022-07-29T04:46:39.808Z,68.79
2022-07-29T04:49:07.370Z,68.73
2022-07-29T04:51:36.298Z,68.06
2022-07-29T04:54:03.791Z,68.58
2022-07-29T04:56:31.191Z,68.30
2022-07-29T04:58:58.650Z,68.92
2022-07-29T05:01:26.159Z,68.59
2022-07-29T05:03:58.366Z,68.99
2022-07-29T05:06:27.685Z,68.56
2022-07-29T05:08:56.561Z,68.23
2022-07-29T05:11:26.116Z,67.95
2022-07-29T05:13:57.519Z,68.64
2022-07-29T05:16:25.142Z,68.62
2022-07-29T05:18:52.714Z,68.79
2022-07-29T05:21:20.205Z,68.61
2022-07-29T05:23:47.622Z,68.38
2022-07-29T05:26:16.479Z,68.13
2022-07-29T05:28:43.973Z,67.93
2022-07-29T05:31:11.526Z,68.14
2022-07-29T05:33:39.005Z,68.20
2022-07-29T05:36:08.010Z,67.85
2022-07-29T05:38:36.316Z,68.32
2022-07-29T05:41:03.783Z,68.41
2022-07-29T05:43:32.728Z,68.06
2022-07-29T05:46:00.332Z,67.81
2022-07-29T05:48:27.982Z,68.15
2022-07-29T05:50:55.979Z,68.32
2022-07-29T05:53:24.007Z,68.28
2022-07-29T05:55:51.664Z,67.34
2022-07-29T05:58:19.267Z,68.03
2022-07-29T06:00:48.150Z,68.23
2022-07-29T06:03:15.581Z,67.69
2022-07-29T06:05:43.048Z,67.81
2022-07-29T06:08:10.469Z,68.34
2022-07-29T06:10:37.902Z,68.19
2022-07-29T06:13:05.571Z,68.68
2022-07-29T06:15:33.185Z,68.95
2022-07-29T06:18:02.477Z,69.08
2022-07-29T06:20:31.118Z,68.70
2022-07-29T06:22:59.199Z,68.71
2022-07-29T06:25:26.747Z,68.32
2022-07-29T06:27:54.336Z,67.81
2022-07-29T06:30:21.890Z,67.17
2022-07-29T06:32:50.340Z,68.31
2022-07-29T06:35:38.296Z,67.83
2022-07-29T06:38:30.405Z,66.81
2022-07-29T06:41:03.304Z,66.32
2022-07-29T06:43:32.601Z,65.80
2022-07-29T06:46:01.059Z,64.81
2022-07-29T06:48:29.112Z,64.75
2022-07-29T06:50:57.913Z,65.50
2022-07-29T06:53:25.483Z,65.16
2022-07-29T06:55:52.861Z,65.42
2022-07-29T06:58:21.433Z,64.83
2022-07-29T07:00:49.437Z,63.92
2022-07-29T07:03:17.080Z,64.18
2022-07-29T07:05:45.086Z,64.00
2022-07-29T07:08:14.134Z,64.74
2022-07-29T07:10:41.882Z,64.39
2022-07-29T07:13:09.610Z,64.61
2022-07-29T07:15:39.780Z,64.06
2022-07-29T07:18:08.129Z,64.19
2022-07-29T07:20:35.646Z,63.84
2022-07-29T07:23:03.111Z,64.07
2022-07-29T07:25:32.251Z,62.97
2022-07-29T07:28:00.127Z,62.37
2022-07-29T07:30:28.181Z,63.32
2022-07-29T07:32:56.250Z,63.65
2022-07-29T07:35:23.818Z,62.94
2022-07-29T07:37:51.290Z,62.83
2022-07-29T07:40:18.977Z,62.66
2022-07-29T07:42:47.829Z,62.60
2022-07-29T07:45:15.848Z,61.45
2022-07-29T07:47:43.756Z,61.00
2022-07-29T07:50:18.000Z,61.34
2022-07-29T07:52:49.983Z,60.74
2022-07-29T07:55:17.571Z,60.18
2022-07-29T07:57:45.190Z,59.36
2022-07-29T08:00:14.945Z,59.57
2022-07-29T08:02:43.726Z,58.67
2022-07-29T08:05:12.990Z,58.24
2022-07-29T08:07:40.674Z,57.58
2022-07-29T08:10:08.467Z,56.94
2022-07-29T08:12:35.939Z,57.39
2022-07-29T08:15:03.354Z,58.40
2022-07-29T08:17:32.164Z,58.26
2022-07-29T08:20:03.040Z,57.11
2022-07-29T08:22:30.647Z,57.02
2022-07-29T08:24:58.042Z,56.58
2022-07-29T08:27:43.333Z,58.05
2022-07-29T08:30:11.642Z,57.31
2022-07-29T08:32:56.375Z,56.94
2022-07-29T08:35:24.965Z,54.81
2022-07-29T08:37:52.829Z,53.97
2022-07-29T08:40:21.405Z,54.32
2022-07-29T08:42:59.638Z,54.19
2022-07-29T08:45:27.285Z,53.34
2022-07-29T08:47:57.294Z,53.71
2022-07-29T08:50:24.786Z,54.39
2022-07-29T08:52:56.573Z,55.25
2022-07-29T08:55:27.170Z,54.36
2022-07-29T08:57:57.337Z,52.65
2022-07-29T09:00:26.132Z,50.05
2022-07-29T09:02:58.300Z,50.19
2022-07-29T09:05:27.961Z,50.11
2022-07-29T09:07:55.724Z,48.92
2022-07-29T09:10:23.255Z,47.22
2022-07-29T09:12:50.850Z,48.59
2022-07-29T09:15:19.546Z,47.76
2022-07-29T09:17:48.094Z,48.53
2022-07-29T09:20:16.563Z,47.76
2022-07-29T09:22:48.115Z,46.33
2022-07-29T09:25:15.689Z,45.94
2022-07-29T09:27:43.147Z,45.96
2022-07-29T09:30:11.978Z,47.15
2022-07-29T09:32:54.308Z,46.80
2022-07-29T09:35:22.864Z,43.23
2022-07-29T09:37:51.867Z,45.20
2022-07-29T09:40:20.677Z,46.55
2022-07-29T09:42:48.512Z,45.42
2022-07-29T09:45:28.342Z,43.54
2022-07-29T09:47:58.127Z,42.02
2022-07-29T09:50:36.301Z,44.14
2022-07-29T09:53:05.119Z,43.11
2022-07-29T09:55:32.679Z,42.96
2022-07-29T09:58:17.031Z,43.62
2022-07-29T10:00:46.759Z,45.95
2022-07-29T10:03:14.323Z,45.40
2022-07-29T10:05:42.971Z,45.14
2022-07-29T10:08:13.251Z,42.93
2022-07-29T10:10:41.534Z,41.63
2022-07-29T10:13:15.368Z,42.22
2022-07-29T10:15:46.091Z,41.78
2022-07-29T10:18:14.467Z,42.61
2022-07-29T10:20:42.006Z,42.11
2022-07-29T10:23:10.645Z,40.58
2022-07-29T10:25:39.458Z,42.52
2022-07-29T10:28:07.561Z,41.32
2022-07-29T10:30:35.399Z,40.70
2022-07-29T10:33:23.597Z,41.02
2022-07-29T10:36:00.965Z,40.87
2022-07-29T10:38:38.750Z,42.60
2022-07-29T10:41:32.086Z,41.05
2022-07-29T10:44:01.442Z,41.49
2022-07-29T10:46:29.388Z,42.12
2022-07-29T10:49:08.059Z,41.28
2022-07-29T10:51:53.832Z,39.27
2022-07-29T10:54:37.754Z,39.03
2022-07-29T10:57:15.685Z,39.90
2022-07-29T10:59:44.134Z,38.04
2022-07-29T11:02:42.470Z,39.41
2022-07-29T11:05:12.733Z,41.41
2022-07-29T11:07:45.923Z,41.31
2022-07-29T11:10:27.053Z,40.08
2022-07-29T11:13:00.430Z,39.62
2022-07-29T11:15:31.607Z,38.62
2022-07-29T11:18:06.342Z,39.35
2022-07-29T11:20:34.958Z,38.29
2022-07-29T11:23:19.291Z,37.12
2022-07-29T11:25:50.653Z,36.58
2022-07-29T11:28:25.241Z,35.24
2022-07-29T11:30:53.794Z,36.20
2022-07-29T11:33:54.478Z,34.27
2022-07-29T11:36:18.535Z,34.92
2022-07-29T11:39:15.299Z,38.76
2022-07-29T11:41:42.784Z,37.00
2022-07-29T11:44:11.648Z,35.41
2022-07-29T11:46:49.681Z,34.90
2022-07-29T11:49:21.929Z,34.50
2022-07-29T11:51:52.495Z,32.23
2022-07-29T11:57:13.174Z,33.19
2022-07-29T11:59:48.481Z,34.12
2022-07-29T12:02:36.704Z,33.60
2022-07-29T12:07:51.879Z,32.43
2022-07-29T12:10:30.468Z,34.08
2022-07-29T12:12:58.351Z,32.95
2022-07-29T12:15:39.253Z,32.71
2022-07-29T12:18:15.136Z,32.13
2022-07-29T12:20:42.642Z,33.06
2022-07-29T12:23:13.830Z,31.58
2022-07-29T12:25:44.473Z,30.61
2022-07-29T12:28:27.496Z,28.13
2022-07-29T12:30:56.868Z,28.08
2022-07-29T12:33:26.380Z,27.70
2022-07-29T12:36:06.985Z,27.08
2022-07-29T12:38:36.212Z,30.19
2022-07-29T12:41:04.563Z,29.99
2022-07-29T12:43:32.459Z,27.84
2022-07-29T12:46:13.178Z,29.76
2022-07-29T12:48:41.600Z,27.87
2022-07-29T12:51:09.977Z,28.25
2022-07-29T12:53:37.719Z,28.74
2022-07-29T12:56:20.707Z,25.66
2022-07-29T12:58:53.389Z,27.37
2022-07-29T13:01:22.758Z,26.65
2022-07-29T13:03:56.661Z,25.75
2022-07-29T13:06:31.577Z,27.36
2022-07-29T13:09:04.769Z,26.79
2022-07-29T13:11:34.156Z,26.72
2022-07-29T13:14:05.902Z,24.82
2022-07-29T13:16:36.395Z,24.57
2022-07-29T13:19:07.923Z,25.49
2022-07-29T13:21:35.360Z,25.36
2022-07-29T13:24:02.958Z,25.24
2022-07-29T13:26:30.405Z,23.43
2022-07-29T13:28:57.882Z,23.77
2022-07-29T13:31:25.361Z,23.27
2022-07-29T13:33:54.133Z,24.37
2022-07-29T13:36:22.040Z,24.81
2022-07-29T13:38:49.532Z,24.63
2022-07-29T13:41:17.056Z,24.54
2022-07-29T13:43:45.540Z,24.50
2022-07-29T13:46:17.516Z,24.63
2022-07-29T13:48:45.037Z,22.56
2022-07-29T13:51:14.079Z,25.33
2022-07-29T13:53:41.630Z,24.98
2022-07-29T13:56:09.121Z,24.45
2022-07-29T13:58:37.026Z,25.59
2022-07-29T14:01:04.767Z,25.56
2022-07-29T14:03:32.543Z,26.23
2022-07-29T14:06:00.900Z,25.13
2022-07-29T14:08:30.334Z,25.67
2022-07-29T14:10:57.763Z,26.03
2022-07-29T14:13:26.380Z,25.67
2022-07-29T14:15:54.337Z,26.78
2022-07-29T14:18:21.788Z,24.70
2022-07-29T14:20:49.292Z,26.19
2022-07-29T14:23:16.715Z,26.55
2022-07-29T14:25:49.398Z,26.46
2022-07-29T14:28:17.239Z,27.30
2022-07-29T14:30:44.741Z,23.77
2022-07-29T14:33:12.254Z,23.81
2022-07-29T14:35:40.129Z,28.76
2022-07-29T14:38:07.573Z,28.66
2022-07-29T14:40:35.150Z,25.46
2022-07-29T14:43:03.998Z,27.23
2022-07-29T14:45:32.437Z,27.19
2022-07-29T14:48:00.815Z,28.26
2022-07-29T14:50:31.422Z,25.26
2022-07-29T14:52:59.668Z,28.38
2022-07-29T14:55:27.229Z,26.26
2022-07-29T14:58:03.066Z,25.86
2022-07-29T15:00:37.804Z,26.30
2022-07-29T15:03:05.643Z,27.67
2022-07-29T15:05:33.212Z,26.60
2022-07-29T15:08:01.048Z,25.73
2022-07-29T15:10:28.971Z,26.89
2022-07-29T15:12:57.658Z,25.99
2022-07-29T15:15:25.180Z,26.66
2022-07-29T15:17:54.015Z,27.01
2022-07-29T15:20:22.252Z,27.00
2022-07-29T15:22:49.724Z,27.78
2022-07-29T15:25:17.269Z,26.28
2022-07-29T15:27:49.698Z,27.07
2022-07-29T15:30:32.842Z,28.02
2022-07-29T15:33:02.617Z,28.31
2022-07-29T15:35:30.125Z,27.44
2022-07-29T15:37:57.588Z,28.94
2022-07-29T15:40:25.067Z,32.09
2022-07-29T15:42:52.494Z,30.55
2022-07-29T15:45:19.988Z,30.07
2022-07-29T15:47:47.418Z,31.13
2022-07-29T15:50:16.840Z,29.86
2022-07-29T15:52:44.617Z,30.87
2022-07-29T15:55:12.057Z,28.88
2022-07-29T15:57:40.821Z,31.54
2022-07-29T16:00:09.093Z,32.19
2022-07-29T16:02:36.611Z,29.76
2022-07-29T16:05:04.146Z,32.46
2022-07-29T16:07:38.637Z,31.86
2022-07-29T16:10:07.786Z,30.13
2022-07-29T16:12:35.253Z,32.04
2022-07-29T16:15:07.527Z,30.82
2022-07-29T16:17:37.177Z,33.02
2022-07-29T16:20:08.134Z,30.42
2022-07-29T16:22:35.801Z,32.19
2022-07-29T16:25:04.778Z,31.47
2022-07-29T16:27:37.534Z,32.50
2022-07-29T16:30:05.996Z,32.22
2022-07-29T16:32:33.635Z,33.17
2022-07-29T16:35:02.610Z,33.31
2022-07-29T16:37:33.381Z,32.41
2022-07-29T16:40:00.833Z,34.31
2022-07-29T16:42:46.028Z,35.75
2022-07-29T16:45:14.615Z,36.43
2022-07-29T16:47:42.052Z,35.73
2022-07-29T16:50:09.571Z,37.32
2022-07-29T16:52:37.586Z,37.85
2022-07-29T16:55:05.411Z,37.89
2022-07-29T16:57:34.198Z,38.34
2022-07-29T17:00:01.616Z,38.37
2022-07-29T17:02:29.087Z,38.53
2022-07-29T17:04:56.504Z,38.55
2022-07-29T17:07:23.914Z,39.82
2022-07-29T17:09:55.351Z,40.06
2022-07-29T17:12:23.435Z,40.39
2022-07-29T17:14:52.211Z,40.65
2022-07-29T17:17:20.662Z,40.93
2022-07-29T17:20:06.612Z,41.14
2022-07-29T17:22:34.065Z,41.52
2022-07-29T17:25:01.552Z,42.07
2022-07-29T17:27:29.009Z,43.05
2022-07-29T17:29:58.343Z,42.87
2022-07-29T17:32:25.959Z,42.70
2022-07-29T17:34:53.437Z,43.11
2022-07-29T17:37:20.979Z,43.67
2022-07-29T17:39:48.485Z,43.43
2022-07-29T17:42:15.857Z,44.16
2022-07-29T17:44:44.303Z,44.15
2022-07-29T17:47:16.178Z,44.49
2022-07-29T17:49:43.957Z,45.09
2022-07-29T17:52:12.243Z,45.13
2022-07-29T17:54:39.662Z,45.63
2022-07-29T17:57:07.124Z,45.97
2022-07-29T17:59:34.637Z,46.14
2022-07-29T18:02:02.143Z,46.15
2022-07-29T18:04:31.462Z,46.46
2022-07-29T18:06:59.440Z,46.41
2022-07-29T18:09:27.218Z,47.35
2022-07-29T18:11:54.709Z,47.42
2022-07-29T18:14:22.172Z,47.19
2022-07-29T18:16:49.616Z,48.98
2022-07-29T18:19:17.110Z,49.03
2022-07-29T18:21:53.997Z,49.20
2022-07-29T18:24:22.281Z,49.01
2022-07-29T18:26:49.664Z,48.57
2022-07-29T18:29:17.082Z,49.98
2022-07-29T18:31:44.699Z,49.35
2022-07-29T18:34:12.149Z,51.19
2022-07-29T18:36:39.630Z,50.68
2022-07-29T18:39:08.506Z,51.07
2022-07-29T18:41:36.507Z,50.73
2022-07-29T18:44:17.658Z,50.50
2022-07-29T18:46:47.423Z,50.91
2022-07-29T18:49:15.672Z,52.48
2022-07-29T18:51:43.238Z,52.75
2022-07-29T18:54:12.040Z,52.62
2022-07-29T18:56:39.533Z,52.33
2022-07-29T18:59:09.083Z,54.21
2022-07-29T19:01:38.270Z,53.69
2022-07-29T19:04:05.983Z,55.29
2022-07-29T19:06:35.417Z,54.81
2022-07-29T19:09:08.672Z,54.28
2022-07-29T19:11:37.898Z,56.10
2022-07-29T19:14:08.068Z,56.61
2022-07-29T19:16:35.691Z,56.96
2022-07-29T19:19:03.254Z,57.54
2022-07-29T19:21:30.726Z,57.55
2022-07-29T19:24:05.964Z,59.19
2022-07-29T19:26:46.371Z,57.13
2022-07-29T19:29:16.847Z,57.12
2022-07-29T19:31:47.306Z,59.19
2022-07-29T19:34:14.836Z,61.38
2022-07-29T19:36:42.713Z,61.03
2022-07-29T19:39:13.402Z,61.11
2022-07-29T19:41:47.740Z,60.54
2022-07-29T19:44:23.968Z,62.25
2022-07-29T19:46:51.493Z,63.57
2022-07-29T19:49:20.729Z,63.28
2022-07-29T19:51:48.234Z,63.30
2022-07-29T19:54:18.556Z,65.09
2022-07-29T19:56:47.417Z,66.83
2022-07-29T19:59:18.474Z,66.03
2022-07-29T20:01:51.432Z,66.55
2022-07-29T20:04:18.978Z,67.71
2022-07-29T20:06:49.375Z,65.70
2022-07-29T20:09:20.570Z,65.72
2022-07-29T20:11:49.631Z,65.99
2022-07-29T20:14:17.075Z,69.50
2022-07-29T20:16:45.512Z,66.26
2022-07-29T20:19:13.004Z,64.96
2022-07-29T20:21:40.426Z,67.06
2022-07-29T20:24:08.328Z,67.61
2022-07-29T20:26:35.757Z,66.82
2022-07-29T20:29:05.283Z,66.52
2022-07-29T20:31:33.057Z,66.58
2022-07-29T20:34:01.488Z,68.24
2022-07-29T20:36:29.082Z,66.09
2022-07-29T20:38:56.615Z,67.22
2022-07-29T20:41:25.346Z,66.55
2022-07-29T20:43:52.849Z,67.05
2022-07-29T20:46:21.703Z,68.11
2022-07-29T20:48:49.290Z,67.60
2022-07-29T20:51:16.758Z,66.47
2022-07-29T20:53:44.195Z,66.65
2022-07-29T20:56:12.890Z,68.36
2022-07-29T20:58:40.860Z,67.55
2022-07-29T21:01:09.554Z,68.35
2022-07-29T21:03:41.036Z,68.64
2022-07-29T21:06:09.103Z,68.30
2022-07-29T21:08:36.747Z,68.41
2022-07-29T21:11:04.762Z,68.95
2022-07-29T21:13:37.806Z,69.19
2022-07-29T21:16:12.574Z,69.44
2022-07-29T21:18:46.384Z,69.42
2022-07-29T21:21:15.273Z,69.57
2022-07-29T21:23:43.319Z,69.54
2022-07-29T21:26:12.933Z,69.73
2022-07-29T21:28:41.568Z,70.57
2022-07-29T21:31:10.406Z,69.77
2022-07-29T21:33:38.132Z,71.05
2022-07-29T21:36:35.408Z,70.83
2022-07-29T21:38:54.957Z,72.06
2022-07-29T21:41:22.407Z,72.71
2022-07-29T21:43:49.906Z,73.43
2022-07-29T21:46:18.060Z,74.78
2022-07-29T21:48:45.644Z,75.90
2022-07-29T21:51:14.439Z,77.17
2022-07-29T21:53:41.895Z,76.92
2022-07-29T21:56:14.354Z,75.38
2022-07-29T21:58:42.507Z,75.06
2022-07-29T22:01:09.976Z,74.58
2022-07-29T22:03:37.430Z,75.85
2022-07-29T22:06:05.043Z,75.52
2022-07-29T22:08:33.835Z,77.26
2022-07-29T22:11:01.250Z,76.25
2022-07-29T22:13:28.725Z,75.70
2022-07-29T22:15:56.194Z,74.67
2022-07-29T22:18:23.704Z,75.36
2022-07-29T22:20:51.371Z,75.23
2022-07-29T22:23:18.801Z,75.62
2022-07-29T22:25:47.562Z,76.24
2022-07-29T22:28:15.099Z,77.13
2022-07-29T22:30:42.623Z,76.97
2022-07-29T22:33:10.142Z,77.72
2022-07-29T22:35:45.182Z,77.98
2022-07-29T22:38:16.525Z,77.59
2022-07-29T22:40:43.998Z,77.09
2022-07-29T22:43:12.844Z,77.32
2022-07-29T22:45:40.477Z,76.99
2022-07-29T22:48:07.991Z,77.03
2022-07-29T22:50:35.493Z,77.31
2022-07-29T22:53:02.957Z,78.11
2022-07-29T22:55:30.414Z,77.86
2022-07-29T22:57:57.857Z,77.32
2022-07-29T23:00:26.873Z,77.36
2022-07-29T23:02:54.517Z,79.41
2022-07-29T23:05:22.137Z,81.88
2022-07-29T23:07:49.609Z,82.75
2022-07-29T23:10:17.143Z,82.13
2022-07-29T23:12:44.604Z,82.13
2022-07-29T23:15:12.258Z,80.71
2022-07-29T23:17:41.034Z,80.14
2022-07-29T23:20:08.881Z,80.37
2022-07-29T23:22:37.479Z,80.13
2022-07-29T23:25:06.149Z,79.85
2022-07-29T23:27:33.735Z,79.52
2022-07-29T23:30:01.188Z,80.76
2022-07-29T23:32:28.634Z,80.30
2022-07-29T23:34:57.450Z,80.23
2022-07-29T23:37:26.898Z,81.50
2022-07-29T23:39:54.573Z,80.39
2022-07-29T23:42:22.050Z,80.42
2022-07-29T23:44:49.572Z,80.49
2022-07-29T23:47:17.037Z,80.86
2022-07-29T23:49:44.726Z,80.91
2022-07-29T23:52:13.510Z,81.73
2022-07-29T23:54:40.995Z,81.18
2022-07-29T23:57:08.397Z,83.02
2022-07-29T23:59:36.617Z,82.47
